createdAt,value
2023-12-10T00:00:54.800Z,40.02
2023-12-10T00:01:54.759Z,40.01
2023-12-10T00:02:54.763Z,40.00
2023-12-10T00:03:54.790Z,39.95
2023-12-10T00:04:54.670Z,39.95
2023-12-10T00:06:04.206Z,39.96
2023-12-10T00:06:55.695Z,39.96
2023-12-10T00:07:54.650Z,39.94
2023-12-10T00:08:54.709Z,39.91
2023-12-10T00:09:54.657Z,39.89
2023-12-10T00:10:54.602Z,39.87
2023-12-10T00:11:54.609Z,39.86
2023-12-10T00:12:54.611Z,39.86
2023-12-10T00:13:54.591Z,39.84
2023-12-10T00:14:54.570Z,39.83
2023-12-10T00:15:54.612Z,39.79
2023-12-10T00:16:54.544Z,39.81
2023-12-10T00:17:54.555Z,39.78
2023-12-10T00:18:54.608Z,39.78
2023-12-10T00:19:54.641Z,39.76
2023-12-10T00:20:54.502Z,39.75
2023-12-10T00:21:54.553Z,39.70
2023-12-10T00:22:54.487Z,39.70
2023-12-10T00:23:54.491Z,39.70
2023-12-10T00:24:54.545Z,39.67
2023-12-10T00:25:54.480Z,39.66
2023-12-10T00:26:54.467Z,39.68
2023-12-10T00:27:54.515Z,39.65
2023-12-10T00:28:54.452Z,39.61
2023-12-10T00:29:54.451Z,39.60
2023-12-10T00:30:54.466Z,39.60
2023-12-10T00:31:54.426Z,39.59
2023-12-10T00:32:54.408Z,39.56
2023-12-10T00:33:54.504Z,39.56
2023-12-10T00:34:54.478Z,39.54
2023-12-10T00:35:54.396Z,39.52
2023-12-10T00:36:54.440Z,39.51
2023-12-10T00:37:54.370Z,39.48
2023-12-10T00:38:54.349Z,39.45
2023-12-10T00:39:54.420Z,39.46
2023-12-10T00:40:54.350Z,39.44
2023-12-10T00:41:54.320Z,39.42
2023-12-10T00:42:54.394Z,39.42
2023-12-10T00:43:54.308Z,39.40
2023-12-10T00:44:54.288Z,39.39
2023-12-10T00:45:54.562Z,39.38
2023-12-10T00:46:54.273Z,39.34
2023-12-10T00:47:54.390Z,39.34
2023-12-10T00:48:54.338Z,39.35
2023-12-10T00:49:54.255Z,39.32
2023-12-10T00:50:54.267Z,39.32
2023-12-10T00:51:54.269Z,39.30
2023-12-10T00:52:54.224Z,39.32
2023-12-10T00:53:54.231Z,39.29
2023-12-10T00:54:54.267Z,39.29
2023-12-10T00:55:54.233Z,39.26
2023-12-10T00:56:54.193Z,39.26
2023-12-10T00:57:54.197Z,39.25
2023-12-10T00:58:54.165Z,39.25
2023-12-10T00:59:54.186Z,39.21
2023-12-10T01:00:54.299Z,39.20
2023-12-10T01:01:54.147Z,39.21
2023-12-10T01:02:54.133Z,39.20
2023-12-10T01:03:54.171Z,39.17
2023-12-10T01:04:54.199Z,39.15
2023-12-10T01:05:54.104Z,39.15
2023-12-10T01:06:54.110Z,39.17
2023-12-10T01:07:54.089Z,39.17
2023-12-10T01:08:54.071Z,39.12
2023-12-10T01:09:54.144Z,39.08
2023-12-10T01:10:54.053Z,39.10
2023-12-10T01:11:54.037Z,39.10
2023-12-10T01:12:54.155Z,39.05
2023-12-10T01:13:54.029Z,39.07
2023-12-10T01:14:54.032Z,39.04
2023-12-10T01:15:54.039Z,39.05
2023-12-10T01:16:53.994Z,39.05
2023-12-10T01:17:54.022Z,39.01
2023-12-10T01:18:54.051Z,39.01
2023-12-10T01:19:53.988Z,39.01
2023-12-10T01:20:53.966Z,39.01
2023-12-10T01:21:53.977Z,38.97
2023-12-10T01:22:53.939Z,39.02
2023-12-10T01:23:53.952Z,38.98
2023-12-10T01:24:53.994Z,38.98
2023-12-10T01:25:54.000Z,38.94
2023-12-10T01:26:54.602Z,38.93
2023-12-10T01:27:53.936Z,38.93
2023-12-10T01:28:53.881Z,38.93
2023-12-10T01:29:53.890Z,38.92
2023-12-10T01:30:53.937Z,38.93
2023-12-10T01:31:53.884Z,38.87
2023-12-10T01:32:54.031Z,38.91
2023-12-10T01:33:54.145Z,38.89
2023-12-10T01:34:53.968Z,38.88
2023-12-10T01:35:54.203Z,38.88
2023-12-10T01:36:53.816Z,38.83
2023-12-10T01:37:53.826Z,38.87
2023-12-10T01:38:53.862Z,38.87
2023-12-10T01:39:53.800Z,38.85
2023-12-10T01:40:53.776Z,38.86
2023-12-10T01:41:53.785Z,38.84
2023-12-10T01:42:53.831Z,38.82
2023-12-10T01:43:53.775Z,38.82
2023-12-10T01:44:53.743Z,38.85
2023-12-10T01:45:53.765Z,38.82
2023-12-10T01:46:53.738Z,38.88
2023-12-10T01:47:53.875Z,38.82
2023-12-10T01:48:53.738Z,38.81
2023-12-10T01:49:53.709Z,38.79
2023-12-10T01:50:53.688Z,38.78
2023-12-10T01:51:53.705Z,38.78
2023-12-10T01:52:53.678Z,38.75
2023-12-10T01:53:53.671Z,38.74
2023-12-10T01:54:53.679Z,38.77
2023-12-10T01:55:53.652Z,38.75
2023-12-10T01:57:00.223Z,38.77
2023-12-10T01:57:54.690Z,38.76
2023-12-10T01:58:53.620Z,38.72
2023-12-10T01:59:53.613Z,38.73
2023-12-10T02:00:53.703Z,38.72
2023-12-10T02:01:53.596Z,38.70
2023-12-10T02:02:53.602Z,38.70
2023-12-10T02:03:53.726Z,38.70
2023-12-10T02:04:53.699Z,38.70
2023-12-10T02:05:53.688Z,38.70
2023-12-10T02:06:53.615Z,38.66
2023-12-10T02:07:53.575Z,38.67
2023-12-10T02:08:53.524Z,38.64
2023-12-10T02:09:53.561Z,38.65
2023-12-10T02:10:53.541Z,38.66
2023-12-10T02:11:53.512Z,38.66
2023-12-10T02:12:53.597Z,38.65
2023-12-10T02:13:53.495Z,38.64
2023-12-10T02:14:53.473Z,38.62
2023-12-10T02:15:53.559Z,38.62
2023-12-10T02:16:53.457Z,38.60
2023-12-10T02:17:53.518Z,38.61
2023-12-10T02:18:53.505Z,38.61
2023-12-10T02:19:53.509Z,38.57
2023-12-10T02:20:53.433Z,38.59
2023-12-10T02:21:53.453Z,38.59
2023-12-10T02:22:53.390Z,38.61
2023-12-10T02:23:53.391Z,38.60
2023-12-10T02:24:53.497Z,38.59
2023-12-10T02:25:53.378Z,38.59
2023-12-10T02:26:53.377Z,38.59
2023-12-10T02:27:53.409Z,38.57
2023-12-10T02:28:53.362Z,38.59
2023-12-10T02:29:53.332Z,38.60
2023-12-10T02:30:53.402Z,38.58
2023-12-10T02:31:53.324Z,38.57
2023-12-10T02:32:53.325Z,38.59
2023-12-10T02:33:53.415Z,38.57
2023-12-10T02:34:53.298Z,38.59
2023-12-10T02:35:53.297Z,38.59
2023-12-10T02:36:53.309Z,38.58
2023-12-10T02:37:53.279Z,38.57
2023-12-10T02:38:53.257Z,38.57
2023-12-10T02:39:53.331Z,38.58
2023-12-10T02:40:53.237Z,38.59
2023-12-10T02:41:53.229Z,38.61
2023-12-10T02:42:53.254Z,38.61
2023-12-10T02:43:53.217Z,38.62
2023-12-10T02:44:53.195Z,38.61
2023-12-10T02:45:53.207Z,38.63
2023-12-10T02:46:53.175Z,38.61
2023-12-10T02:47:53.305Z,38.62
2023-12-10T02:48:53.206Z,38.63
2023-12-10T02:49:53.223Z,38.62
2023-12-10T02:50:53.145Z,38.64
2023-12-10T02:51:53.260Z,38.65
2023-12-10T02:52:53.135Z,38.67
2023-12-10T02:53:53.114Z,38.67
2023-12-10T02:54:53.157Z,38.65
2023-12-10T02:55:53.116Z,38.62
2023-12-10T02:56:53.103Z,38.60
2023-12-10T02:57:53.108Z,38.62
2023-12-10T02:58:53.085Z,38.62
2023-12-10T02:59:53.054Z,38.63
2023-12-10T03:00:53.173Z,38.63
2023-12-10T03:01:53.032Z,38.60
2023-12-10T03:02:53.086Z,38.62
2023-12-10T03:03:53.045Z,38.60
2023-12-10T03:04:53.038Z,38.63
2023-12-10T03:05:52.989Z,38.59
2023-12-10T03:06:53.033Z,38.59
2023-12-10T03:07:52.993Z,38.59
2023-12-10T03:08:52.989Z,38.64
2023-12-10T03:09:52.967Z,38.61
2023-12-10T03:10:52.966Z,38.59
2023-12-10T03:11:52.952Z,38.60
2023-12-10T03:12:53.054Z,38.61
2023-12-10T03:13:52.931Z,38.56
2023-12-10T03:14:52.917Z,38.60
2023-12-10T03:15:52.951Z,38.58
2023-12-10T03:16:52.900Z,38.56
2023-12-10T03:17:53.000Z,38.57
2023-12-10T03:18:52.990Z,38.56
2023-12-10T03:19:52.874Z,38.57
2023-12-10T03:20:52.859Z,38.62
2023-12-10T03:21:52.897Z,38.61
2023-12-10T03:22:52.862Z,38.60
2023-12-10T03:23:52.835Z,38.61
2023-12-10T03:24:52.883Z,38.60
2023-12-10T03:25:52.816Z,38.59
2023-12-10T03:26:52.810Z,38.57
2023-12-10T03:27:52.977Z,38.58
2023-12-10T03:28:52.802Z,38.59
2023-12-10T03:29:57.785Z,38.60
2023-12-10T03:30:52.788Z,38.60
2023-12-10T03:31:52.758Z,38.60
2023-12-10T03:32:52.878Z,38.60
2023-12-10T03:33:52.830Z,38.57
2023-12-10T03:34:52.819Z,38.58
2023-12-10T03:35:52.731Z,38.58
2023-12-10T03:36:52.748Z,38.56
2023-12-10T03:37:52.715Z,38.58
2023-12-10T03:38:52.699Z,38.54
2023-12-10T03:39:52.787Z,38.55
2023-12-10T03:40:52.676Z,38.57
2023-12-10T03:41:52.667Z,38.56
2023-12-10T03:42:52.688Z,38.54
2023-12-10T03:43:52.653Z,38.54
2023-12-10T03:44:52.638Z,38.54
2023-12-10T03:45:52.734Z,38.56
2023-12-10T03:46:52.618Z,38.58
2023-12-10T03:47:52.658Z,38.57
2023-12-10T03:48:52.678Z,38.53
2023-12-10T03:49:52.786Z,38.55
2023-12-10T03:50:52.620Z,38.53
2023-12-10T03:51:52.601Z,38.54
2023-12-10T03:52:52.621Z,38.55
2023-12-10T03:53:52.545Z,38.55
2023-12-10T03:54:52.605Z,38.53
2023-12-10T03:55:52.536Z,38.53
2023-12-10T03:56:52.553Z,38.56
2023-12-10T03:57:52.611Z,38.54
2023-12-10T03:58:52.513Z,38.54
2023-12-10T03:59:52.493Z,38.55
2023-12-10T04:00:52.557Z,38.52
2023-12-10T04:01:52.473Z,38.52
2023-12-10T04:02:52.507Z,38.53
2023-12-10T04:03:52.660Z,38.56
2023-12-10T04:04:52.475Z,38.50
2023-12-10T04:05:52.481Z,38.50
2023-12-10T04:06:52.463Z,38.53
2023-12-10T04:07:52.461Z,38.52
2023-12-10T04:08:52.419Z,38.53
2023-12-10T04:10:02.417Z,38.52
2023-12-10T04:10:52.414Z,38.59
2023-12-10T04:11:52.382Z,38.54
2023-12-10T04:12:52.485Z,38.54
2023-12-10T04:13:52.410Z,38.53
2023-12-10T04:14:57.373Z,38.52
2023-12-10T04:15:52.488Z,38.53
2023-12-10T04:16:52.363Z,38.54
2023-12-10T04:17:52.401Z,38.53
2023-12-10T04:18:52.456Z,38.52
2023-12-10T04:19:52.468Z,38.52
2023-12-10T04:20:52.316Z,38.50
2023-12-10T04:21:52.474Z,38.54
2023-12-10T04:22:52.289Z,38.52
2023-12-10T04:23:52.286Z,38.54
2023-12-10T04:24:52.353Z,38.52
2023-12-10T04:25:52.254Z,38.56
2023-12-10T04:26:52.258Z,38.56
2023-12-10T04:27:52.373Z,38.55
2023-12-10T04:28:52.255Z,38.57
2023-12-10T04:29:52.236Z,38.54
2023-12-10T04:30:52.266Z,38.52
2023-12-10T04:31:52.202Z,38.53
2023-12-10T04:32:52.273Z,38.51
2023-12-10T04:33:52.245Z,38.51
2023-12-10T04:34:52.203Z,38.49
2023-12-10T04:35:52.171Z,38.50
2023-12-10T04:36:52.180Z,38.50
2023-12-10T04:37:52.166Z,38.50
2023-12-10T04:38:52.137Z,38.53
2023-12-10T04:39:52.217Z,38.50
2023-12-10T04:40:52.141Z,38.47
2023-12-10T04:41:52.105Z,38.51
2023-12-10T04:42:52.151Z,38.48
2023-12-10T04:43:52.082Z,38.48
2023-12-10T04:44:52.089Z,38.47
2023-12-10T04:45:52.155Z,38.49
2023-12-10T04:46:52.071Z,38.50
2023-12-10T04:47:52.184Z,38.50
2023-12-10T04:48:52.137Z,38.51
2023-12-10T04:49:52.073Z,38.53
2023-12-10T04:50:52.045Z,38.51
2023-12-10T04:51:52.085Z,38.48
2023-12-10T04:52:52.018Z,38.47
2023-12-10T04:53:52.015Z,38.48
2023-12-10T04:54:52.022Z,38.46
2023-12-10T04:55:51.981Z,38.49
2023-12-10T04:56:51.980Z,38.47
2023-12-10T04:57:51.983Z,38.51
2023-12-10T04:58:51.962Z,38.52
2023-12-10T04:59:51.956Z,38.49
2023-12-10T05:00:51.999Z,38.52
2023-12-10T05:01:51.995Z,38.52
2023-12-10T05:02:51.963Z,38.52
2023-12-10T05:03:51.961Z,38.50
2023-12-10T05:04:51.901Z,38.47
2023-12-10T05:05:51.902Z,38.48
2023-12-10T05:06:51.971Z,38.50
2023-12-10T05:07:51.874Z,38.48
2023-12-10T05:08:51.857Z,38.50
2023-12-10T05:09:51.861Z,38.47
2023-12-10T05:10:51.848Z,38.51
2023-12-10T05:11:51.827Z,38.49
2023-12-10T05:12:51.891Z,38.50
2023-12-10T05:13:51.812Z,38.51
2023-12-10T05:14:51.813Z,38.49
2023-12-10T05:15:51.852Z,38.49
2023-12-10T05:16:51.794Z,38.50
2023-12-10T05:17:51.866Z,38.48
2023-12-10T05:18:51.859Z,38.47
2023-12-10T05:19:51.765Z,38.48
2023-12-10T05:20:51.757Z,38.45
2023-12-10T05:21:51.859Z,38.45
2023-12-10T05:22:51.791Z,38.47
2023-12-10T05:23:51.719Z,38.49
2023-12-10T05:24:51.734Z,38.47
2023-12-10T05:25:51.714Z,38.47
2023-12-10T05:26:51.695Z,38.44
2023-12-10T05:27:51.709Z,38.47
2023-12-10T05:28:51.685Z,38.45
2023-12-10T05:29:51.673Z,38.48
2023-12-10T05:30:51.687Z,38.48
2023-12-10T05:31:51.657Z,38.49
2023-12-10T05:32:51.777Z,38.50
2023-12-10T05:33:51.698Z,38.51
2023-12-10T05:34:51.892Z,38.52
2023-12-10T05:35:51.613Z,38.49
2023-12-10T05:36:51.652Z,38.50
2023-12-10T05:37:51.585Z,38.50
2023-12-10T05:38:51.597Z,38.49
2023-12-10T05:39:51.692Z,38.51
2023-12-10T05:40:51.576Z,38.49
2023-12-10T05:41:51.548Z,38.50
2023-12-10T05:42:51.572Z,38.52
2023-12-10T05:43:51.528Z,38.53
2023-12-10T05:44:51.530Z,38.54
2023-12-10T05:45:51.586Z,38.55
2023-12-10T05:46:51.517Z,38.51
2023-12-10T05:47:51.602Z,38.56
2023-12-10T05:48:51.646Z,38.56
2023-12-10T05:49:51.595Z,38.53
2023-12-10T05:50:51.467Z,38.58
2023-12-10T05:51:51.558Z,38.57
2023-12-10T05:52:51.452Z,38.55
2023-12-10T05:53:51.456Z,38.59
2023-12-10T05:54:51.477Z,38.57
2023-12-10T05:55:51.440Z,38.56
2023-12-10T05:56:51.428Z,38.56
2023-12-10T05:57:51.486Z,38.58
2023-12-10T05:58:51.404Z,38.61
2023-12-10T05:59:51.396Z,38.61
2023-12-10T06:00:51.431Z,38.61
2023-12-10T06:01:51.376Z,38.60
2023-12-10T06:02:51.384Z,38.63
2023-12-10T06:03:51.427Z,38.61
2023-12-10T06:04:51.432Z,38.61
2023-12-10T06:05:51.423Z,38.62
2023-12-10T06:06:51.374Z,38.61
2023-12-10T06:07:51.703Z,38.61
2023-12-10T06:08:51.326Z,38.62
2023-12-10T06:09:51.350Z,38.63
2023-12-10T06:10:51.306Z,38.62
2023-12-10T06:11:51.275Z,38.63
2023-12-10T06:12:51.396Z,38.64
2023-12-10T06:13:51.251Z,38.65
2023-12-10T06:14:51.257Z,38.65
2023-12-10T06:15:51.293Z,38.65
2023-12-10T06:16:51.242Z,38.65
2023-12-10T06:17:51.355Z,38.65
2023-12-10T06:18:51.340Z,38.66
2023-12-10T06:19:51.193Z,38.67
2023-12-10T06:20:51.201Z,38.65
2023-12-10T06:21:51.248Z,38.66
2023-12-10T06:22:51.188Z,38.66
2023-12-10T06:23:51.170Z,38.68
2023-12-10T06:24:51.181Z,38.66
2023-12-10T06:25:51.152Z,38.67
2023-12-10T06:26:51.140Z,38.66
2023-12-10T06:27:51.149Z,38.65
2023-12-10T06:28:51.151Z,38.67
2023-12-10T06:29:51.112Z,38.67
2023-12-10T06:30:51.159Z,38.69
2023-12-10T06:31:51.093Z,38.68
2023-12-10T06:32:52.342Z,38.70
2023-12-10T06:33:51.234Z,38.71
2023-12-10T06:34:51.107Z,38.67
2023-12-10T06:35:51.051Z,38.68
2023-12-10T06:36:51.123Z,38.71
2023-12-10T06:37:51.040Z,38.69
2023-12-10T06:38:51.049Z,38.69
2023-12-10T06:39:51.061Z,38.71
2023-12-10T06:40:51.025Z,38.70
2023-12-10T06:41:50.997Z,38.72
2023-12-10T06:42:51.025Z,38.70
2023-12-10T06:43:50.975Z,38.67
2023-12-10T06:44:50.976Z,38.70
2023-12-10T06:45:51.011Z,38.68
2023-12-10T06:46:50.990Z,38.68
2023-12-10T06:47:50.981Z,38.66
2023-12-10T06:48:51.036Z,38.67
2023-12-10T06:49:51.038Z,38.66
2023-12-10T06:50:50.928Z,38.68
2023-12-10T06:51:51.008Z,38.69
2023-12-10T06:52:50.905Z,38.71
2023-12-10T06:53:50.893Z,38.66
2023-12-10T06:54:50.915Z,38.68
2023-12-10T06:55:50.882Z,38.70
2023-12-10T06:56:50.863Z,38.71
2023-12-10T06:57:50.900Z,38.69
2023-12-10T06:58:50.840Z,38.69
2023-12-10T06:59:50.836Z,38.68
2023-12-10T07:00:50.871Z,38.67
2023-12-10T07:01:50.837Z,38.69
2023-12-10T07:02:50.818Z,38.68
2023-12-10T07:03:50.873Z,38.71
2023-12-10T07:04:50.818Z,38.67
2023-12-10T07:05:50.795Z,38.66
2023-12-10T07:06:50.807Z,38.68
2023-12-10T07:07:50.764Z,38.69
2023-12-10T07:08:50.766Z,38.66
2023-12-10T07:09:50.768Z,38.67
2023-12-10T07:10:50.737Z,38.69
2023-12-10T07:11:50.723Z,38.67
2023-12-10T07:12:50.754Z,38.66
2023-12-10T07:13:50.708Z,38.65
2023-12-10T07:14:51.780Z,38.63
2023-12-10T07:15:50.718Z,38.65
2023-12-10T07:16:50.729Z,38.65
2023-12-10T07:17:50.765Z,38.64
2023-12-10T07:18:50.758Z,38.64
2023-12-10T07:19:50.820Z,38.63
2023-12-10T07:20:50.636Z,38.63
2023-12-10T07:21:50.663Z,38.62
2023-12-10T07:22:50.612Z,38.63
2023-12-10T07:23:50.626Z,38.62
2023-12-10T07:24:50.659Z,38.65
2023-12-10T07:25:50.606Z,38.64
2023-12-10T07:26:50.595Z,38.64
2023-12-10T07:27:50.625Z,38.65
2023-12-10T07:28:50.578Z,38.67
2023-12-10T07:29:50.551Z,38.65
2023-12-10T07:30:50.588Z,38.65
2023-12-10T07:31:50.561Z,38.65
2023-12-10T07:32:50.568Z,38.67
2023-12-10T07:33:50.641Z,38.67
2023-12-10T07:34:50.539Z,38.68
2023-12-10T07:35:50.513Z,38.67
2023-12-10T07:36:50.526Z,38.67
2023-12-10T07:37:50.496Z,38.63
2023-12-10T07:38:50.483Z,38.64
2023-12-10T07:39:50.510Z,38.64
2023-12-10T07:40:50.464Z,38.64
2023-12-10T07:41:50.447Z,38.66
2023-12-10T07:42:50.470Z,38.64
2023-12-10T07:43:50.426Z,38.65
2023-12-10T07:44:50.411Z,38.64
2023-12-10T07:45:50.475Z,38.62
2023-12-10T07:46:50.399Z,38.61
2023-12-10T07:47:50.540Z,38.62
2023-12-10T07:48:50.498Z,38.60
2023-12-10T07:49:50.526Z,38.64
2023-12-10T07:50:50.375Z,38.61
2023-12-10T07:51:55.414Z,38.62
2023-12-10T07:52:50.347Z,38.63
2023-12-10T07:53:50.354Z,38.64
2023-12-10T07:54:50.349Z,38.62
2023-12-10T07:55:50.321Z,38.62
2023-12-10T07:56:50.334Z,38.62
2023-12-10T07:57:50.321Z,38.63
2023-12-10T07:58:50.282Z,38.61
2023-12-10T07:59:50.279Z,38.62
2023-12-10T08:00:50.355Z,38.63
2023-12-10T08:01:50.282Z,38.62
2023-12-10T08:02:50.256Z,38.59
2023-12-10T08:03:50.387Z,38.60
2023-12-10T08:04:50.260Z,38.60
2023-12-10T08:05:50.230Z,38.59
2023-12-10T08:06:55.279Z,38.59
2023-12-10T08:07:50.233Z,38.59
2023-12-10T08:08:50.203Z,38.57
2023-12-10T08:09:50.227Z,38.59
2023-12-10T08:10:51.765Z,38.60
2023-12-10T08:11:50.204Z,38.60
2023-12-10T08:12:50.251Z,38.59
2023-12-10T08:13:50.794Z,38.61
2023-12-10T08:14:50.149Z,38.61
2023-12-10T08:15:50.164Z,38.61
2023-12-10T08:16:50.119Z,38.62
2023-12-10T08:17:50.218Z,38.60
2023-12-10T08:18:50.198Z,38.59
2023-12-10T08:19:50.183Z,38.56
2023-12-10T08:20:50.077Z,38.56
2023-12-10T08:21:50.133Z,38.59
2023-12-10T08:22:50.091Z,38.58
2023-12-10T08:23:50.058Z,38.59
2023-12-10T08:24:50.118Z,38.57
2023-12-10T08:25:50.054Z,38.58
2023-12-10T08:26:50.047Z,38.58
2023-12-10T08:27:50.082Z,38.61
2023-12-10T08:28:50.040Z,38.59
2023-12-10T08:29:50.002Z,38.60
2023-12-10T08:30:50.045Z,38.58
2023-12-10T08:31:49.988Z,38.57
2023-12-10T08:32:50.023Z,38.55
2023-12-10T08:33:50.229Z,38.57
2023-12-10T08:34:50.029Z,38.58
2023-12-10T08:35:49.981Z,38.56
2023-12-10T08:36:50.029Z,38.57
2023-12-10T08:37:49.961Z,38.55
2023-12-10T08:38:49.921Z,38.58
2023-12-10T08:39:50.040Z,38.55
2023-12-10T08:40:49.892Z,38.55
2023-12-10T08:41:49.911Z,38.54
2023-12-10T08:42:49.899Z,38.54
2023-12-10T08:43:49.890Z,38.54
2023-12-10T08:44:49.856Z,38.56
2023-12-10T08:45:49.942Z,38.54
2023-12-10T08:46:49.844Z,38.55
2023-12-10T08:47:49.967Z,38.56
2023-12-10T08:48:50.056Z,38.55
2023-12-10T08:49:49.848Z,38.57
2023-12-10T08:50:49.832Z,38.56
2023-12-10T08:51:49.824Z,38.54
2023-12-10T08:52:49.782Z,38.52
2023-12-10T08:53:49.803Z,38.54
2023-12-10T08:54:49.790Z,38.54
2023-12-10T08:55:49.777Z,38.55
2023-12-10T08:56:49.756Z,38.53
2023-12-10T08:57:49.793Z,38.52
2023-12-10T08:58:49.751Z,38.51
2023-12-10T08:59:49.744Z,38.51
2023-12-10T09:00:49.831Z,38.51
2023-12-10T09:01:49.750Z,38.50
2023-12-10T09:02:49.710Z,38.50
2023-12-10T09:03:49.775Z,38.49
2023-12-10T09:04:49.746Z,38.49
2023-12-10T09:05:49.678Z,38.47
2023-12-10T09:06:49.690Z,38.47
2023-12-10T09:07:49.669Z,38.50
2023-12-10T09:08:49.648Z,38.48
2023-12-10T09:09:53.619Z,38.49
2023-12-10T09:10:50.619Z,38.48
2023-12-10T09:11:49.643Z,38.49
2023-12-10T09:12:49.639Z,38.48
2023-12-10T09:13:49.656Z,38.48
2023-12-10T09:14:49.580Z,38.47
2023-12-10T09:15:49.595Z,38.44
2023-12-10T09:16:49.568Z,38.48
2023-12-10T09:17:49.714Z,38.44
2023-12-10T09:18:49.663Z,38.45
2023-12-10T09:19:49.582Z,38.44
2023-12-10T09:20:49.521Z,38.47
2023-12-10T09:21:49.569Z,38.45
2023-12-10T09:22:49.518Z,38.45
2023-12-10T09:23:49.514Z,38.44
2023-12-10T09:24:49.523Z,38.44
2023-12-10T09:25:49.497Z,38.42
2023-12-10T09:26:49.504Z,38.41
2023-12-10T09:27:49.563Z,38.40
2023-12-10T09:28:49.474Z,38.39
2023-12-10T09:29:49.447Z,38.42
2023-12-10T09:30:49.518Z,38.40
2023-12-10T09:31:49.437Z,38.40
2023-12-10T09:32:49.471Z,38.39
2023-12-10T09:33:49.460Z,38.39
2023-12-10T09:34:49.509Z,38.39
2023-12-10T09:35:49.408Z,38.37
2023-12-10T09:36:49.414Z,38.38
2023-12-10T09:37:49.400Z,38.36
2023-12-10T09:38:49.373Z,38.35
2023-12-10T09:39:49.408Z,38.36
2023-12-10T09:40:49.346Z,38.36
2023-12-10T09:41:49.379Z,38.38
2023-12-10T09:42:59.446Z,38.34
2023-12-10T09:43:49.332Z,38.40
2023-12-10T09:44:49.309Z,38.39
2023-12-10T09:45:49.348Z,38.38
2023-12-10T09:46:49.284Z,38.33
2023-12-10T09:47:49.370Z,38.36
2023-12-10T09:48:49.394Z,38.36
2023-12-10T09:49:49.301Z,38.36
2023-12-10T09:50:49.273Z,38.38
2023-12-10T09:51:49.368Z,38.33
2023-12-10T09:52:49.263Z,38.34
2023-12-10T09:53:49.271Z,38.33
2023-12-10T09:54:49.294Z,38.34
2023-12-10T09:55:49.218Z,38.34
2023-12-10T09:56:49.217Z,38.34
2023-12-10T09:57:49.276Z,38.34
2023-12-10T09:58:49.199Z,38.34
2023-12-10T09:59:49.178Z,38.35
2023-12-10T10:00:49.216Z,38.33
2023-12-10T10:01:49.187Z,38.34
2023-12-10T10:02:49.152Z,38.33
2023-12-10T10:03:49.300Z,38.34
2023-12-10T10:04:49.226Z,38.36
2023-12-10T10:05:49.198Z,38.36
2023-12-10T10:06:49.169Z,38.34
2023-12-10T10:07:49.115Z,38.33
2023-12-10T10:08:49.096Z,38.33
2023-12-10T10:09:49.125Z,38.32
2023-12-10T10:10:49.087Z,38.32
2023-12-10T10:11:49.081Z,38.31
2023-12-10T10:12:49.094Z,38.30
2023-12-10T10:13:49.072Z,38.30
2023-12-10T10:14:49.069Z,38.30
2023-12-10T10:15:49.082Z,38.30
2023-12-10T10:16:49.037Z,38.31
2023-12-10T10:17:51.195Z,38.30
2023-12-10T10:18:49.210Z,38.32
2023-12-10T10:19:49.094Z,38.30
2023-12-10T10:20:48.985Z,38.27
2023-12-10T10:21:49.030Z,38.27
2023-12-10T10:22:48.968Z,38.28
2023-12-10T10:23:48.978Z,38.30
2023-12-10T10:24:48.993Z,38.27
2023-12-10T10:25:48.956Z,38.27
2023-12-10T10:26:48.936Z,38.28
2023-12-10T10:27:48.963Z,38.24
2023-12-10T10:28:48.930Z,38.24
2023-12-10T10:29:48.926Z,38.25
2023-12-10T10:30:48.930Z,38.23
2023-12-10T10:31:48.904Z,38.26
2023-12-10T10:32:49.835Z,38.26
2023-12-10T10:33:48.956Z,38.28
2023-12-10T10:34:48.987Z,38.26
2023-12-10T10:35:48.868Z,38.28
2023-12-10T10:36:48.917Z,38.28
2023-12-10T10:37:48.861Z,38.25
2023-12-10T10:38:48.857Z,38.25
2023-12-10T10:39:48.870Z,38.25
2023-12-10T10:40:48.812Z,38.22
2023-12-10T10:41:48.810Z,38.24
2023-12-10T10:42:48.801Z,38.24
2023-12-10T10:43:48.795Z,38.21
2023-12-10T10:44:48.803Z,38.22
2023-12-10T10:45:48.832Z,38.18
2023-12-10T10:46:48.791Z,38.17
2023-12-10T10:47:48.883Z,38.17
2023-12-10T10:48:48.806Z,38.19
2023-12-10T10:50:19.018Z,38.19
2023-12-10T10:50:49.756Z,38.19
2023-12-10T10:51:48.725Z,38.19
2023-12-10T10:52:48.720Z,38.16
2023-12-10T10:53:48.716Z,38.14
2023-12-10T10:54:48.719Z,38.16
2023-12-10T10:55:48.690Z,38.13
2023-12-10T10:56:48.669Z,38.15
2023-12-10T10:57:48.707Z,38.12
2023-12-10T10:58:53.695Z,38.14
2023-12-10T10:59:48.661Z,38.16
2023-12-10T11:00:48.751Z,38.14
2023-12-10T11:01:48.731Z,38.15
2023-12-10T11:02:48.661Z,38.16
2023-12-10T11:03:48.672Z,38.13
2023-12-10T11:04:48.706Z,38.13
2023-12-10T11:05:48.656Z,38.12
2023-12-10T11:06:49.409Z,38.13
2023-12-10T11:07:48.592Z,38.13
2023-12-10T11:08:48.587Z,38.11
2023-12-10T11:09:48.589Z,38.11
2023-12-10T11:10:48.562Z,38.11
2023-12-10T11:11:48.536Z,38.12
2023-12-10T11:12:48.560Z,38.10
2023-12-10T11:13:48.558Z,38.12
2023-12-10T11:14:48.518Z,38.08
2023-12-10T11:15:48.538Z,38.09
2023-12-10T11:16:48.500Z,38.06
2023-12-10T11:17:48.566Z,38.05
2023-12-10T11:18:48.592Z,38.06
2023-12-10T11:19:48.562Z,38.02
2023-12-10T11:20:48.557Z,38.03
2023-12-10T11:21:48.468Z,38.01
2023-12-10T11:22:48.442Z,37.99
2023-12-10T11:23:48.448Z,38.00
2023-12-10T11:24:48.483Z,37.98
2023-12-10T11:25:48.450Z,38.01
2023-12-10T11:26:48.439Z,37.98
2023-12-10T11:27:48.409Z,37.97
2023-12-10T11:28:48.423Z,37.96
2023-12-10T11:29:48.380Z,37.96
2023-12-10T11:30:48.412Z,37.97
2023-12-10T11:31:48.377Z,37.98
2023-12-10T11:32:48.457Z,37.95
2023-12-10T11:33:48.474Z,37.97
2023-12-10T11:34:48.511Z,37.96
2023-12-10T11:36:17.588Z,37.96
2023-12-10T11:36:49.404Z,37.96
2023-12-10T11:37:48.331Z,37.97
2023-12-10T11:38:48.317Z,37.95
2023-12-10T11:39:48.382Z,37.96
2023-12-10T11:40:48.282Z,37.95
2023-12-10T11:41:56.347Z,37.93
2023-12-10T11:42:49.323Z,37.97
2023-12-10T11:43:48.277Z,37.95
2023-12-10T11:44:49.469Z,37.95
2023-12-10T11:45:48.262Z,37.96
2023-12-10T11:46:51.102Z,37.96
2023-12-10T11:47:48.326Z,37.93
2023-12-10T11:48:48.311Z,37.94
2023-12-10T11:49:48.257Z,37.93
2023-12-10T11:50:48.212Z,37.93
2023-12-10T11:51:48.237Z,37.91
2023-12-10T11:52:48.186Z,37.94
2023-12-10T11:53:48.162Z,37.92
2023-12-10T11:54:48.181Z,37.94
2023-12-10T11:55:48.145Z,37.92
2023-12-10T11:56:48.154Z,37.93
2023-12-10T11:57:48.158Z,37.91
2023-12-10T11:58:48.133Z,37.93
2023-12-10T11:59:48.138Z,37.92
2023-12-10T12:00:48.168Z,37.93
2023-12-10T12:01:48.222Z,37.92
2023-12-10T12:02:48.110Z,37.92
2023-12-10T12:03:48.174Z,37.93
2023-12-10T12:04:48.122Z,37.90
2023-12-10T12:05:48.067Z,37.91
2023-12-10T12:06:48.247Z,37.92
2023-12-10T12:07:48.056Z,37.90
2023-12-10T12:08:48.065Z,37.92
2023-12-10T12:09:48.049Z,37.92
2023-12-10T12:10:48.042Z,37.92
2023-12-10T12:11:48.005Z,37.90
2023-12-10T12:12:48.102Z,37.89
2023-12-10T12:13:48.061Z,37.91
2023-12-10T12:14:47.996Z,37.88
2023-12-10T12:15:48.037Z,37.91
2023-12-10T12:16:47.974Z,37.91
2023-12-10T12:17:48.041Z,37.89
2023-12-10T12:18:48.036Z,37.90
2023-12-10T12:19:48.038Z,37.91
2023-12-10T12:20:47.929Z,37.91
2023-12-10T12:21:47.975Z,37.91
2023-12-10T12:22:49.403Z,37.91
2023-12-10T12:23:47.919Z,37.90
2023-12-10T12:24:47.941Z,37.90
2023-12-10T12:25:47.896Z,37.90
2023-12-10T12:26:47.887Z,37.89
2023-12-10T12:27:47.957Z,37.89
2023-12-10T12:28:48.955Z,37.90
2023-12-10T12:29:47.864Z,37.90
2023-12-10T12:30:47.892Z,37.91
2023-12-10T12:32:05.061Z,37.91
2023-12-10T12:32:48.978Z,37.91
2023-12-10T12:33:48.078Z,37.91
2023-12-10T12:34:47.951Z,37.92
2023-12-10T12:35:47.813Z,37.93
2023-12-10T12:36:47.833Z,37.92
2023-12-10T12:37:47.776Z,37.94
2023-12-10T12:38:47.807Z,37.94
2023-12-10T12:39:47.798Z,37.95
2023-12-10T12:40:47.774Z,37.92
2023-12-10T12:41:47.770Z,37.93
2023-12-10T12:42:47.759Z,37.93
2023-12-10T12:43:47.754Z,37.94
2023-12-10T12:44:47.725Z,37.95
2023-12-10T12:45:47.742Z,37.96
2023-12-10T12:46:48.977Z,37.94
2023-12-10T12:47:47.768Z,37.95
2023-12-10T12:48:47.746Z,37.94
2023-12-10T12:49:47.756Z,37.95
2023-12-10T12:50:47.696Z,37.95
2023-12-10T12:51:47.721Z,37.96
2023-12-10T12:52:48.951Z,37.95